Time;durP1;ratioP1;P1;durP2;ratioP2;P2;SDS_P1;SDS_P2;PMS_P1;PMS_P2;Temp;Humidity;BMP_temperature;BMP_pressure;BME280_temperature;BME280_humidity;BME280_pressure;Samples;Min_cycle;Max_cycle;Signal;HPM_P1;HPM_P2
2021/06/20 00:00:26;;;;;;;10.48;7.95;;;19.00;99.90;;;;;;5113120;28;20232;-83
2021/06/20 00:02:53;;;;;;;11.25;7.82;;;18.80;99.90;;;;;;5113988;28;20564;-84
2021/06/20 00:05:34;;;;;;;13.07;7.45;;;18.70;99.90;;;;;;5114354;28;20166;-84
2021/06/20 00:08:04;;;;;;;10.88;7.20;;;18.70;99.90;;;;;;5114253;28;20174;-83
2021/06/20 00:10:33;;;;;;;10.38;7.00;;;18.00;99.90;;;;;;5113395;28;20170;-83
2021/06/20 00:12:59;;;;;;;11.15;7.65;;;;;;;;;;5114093;28;20221;-84
2021/06/20 00:15:26;;;;;;;12.18;7.47;;;18.90;99.90;;;;;;5114347;28;20181;-84
2021/06/20 00:17:51;;;;;;;9.60;7.03;;;18.30;99.90;;;;;;5095916;28;20256;-84
2021/06/20 00:20:19;;;;;;;13.43;6.93;;;18.60;99.90;;;;;;5114047;28;20296;-84
2021/06/20 00:22:46;;;;;;;9.15;6.68;;;18.80;99.90;;;;;;5112956;28;20165;-84
2021/06/20 00:25:13;;;;;;;8.50;7.20;;;18.90;99.90;;;;;;5114293;28;20201;-82
2021/06/20 00:27:38;;;;;;;9.38;7.10;;;18.40;99.90;;;;;;5114030;28;20257;-84
2021/06/20 00:30:08;;;;;;;7.60;6.50;;;18.20;99.90;;;;;;5113058;28;20624;-83
2021/06/20 00:32:33;;;;;;;9.25;6.93;;;18.40;99.90;;;;;;5114137;28;20523;-84
2021/06/20 00:34:59;;;;;;;12.73;7.28;;;;;;;;;;5112929;28;20618;-83
2021/06/20 00:37:25;;;;;;;11.20;6.80;;;18.50;99.90;;;;;;5114333;28;20246;-83
2021/06/20 00:39:51;;;;;;;9.80;7.22;;;18.40;99.90;;;;;;5112473;28;20193;-84
2021/06/20 00:42:17;;;;;;;9.73;7.68;;;;;;;;;;5096197;28;20174;-84
2021/06/20 00:44:48;;;;;;;10.52;7.55;;;18.70;99.90;;;;;;5113771;28;20671;-83
2021/06/20 00:47:15;;;;;;;10.38;6.90;;;18.40;99.90;;;;;;5113035;28;20197;-83
2021/06/20 00:49:40;;;;;;;9.85;8.20;;;18.40;99.90;;;;;;5114320;28;20169;-84
2021/06/20 00:52:06;;;;;;;18.33;8.02;;;18.30;99.90;;;;;;5114165;28;20177;-83
2021/06/20 00:54:32;;;;;;;9.60;7.55;;;;;;;;;;5117332;28;20610;-83
2021/06/20 00:56:58;;;;;;;14.57;7.72;;;18.20;99.90;;;;;;5118106;28;20170;-82
2021/06/20 00:59:24;;;;;;;10.02;7.20;;;;;;;;;;5116228;28;20174;-82
2021/06/20 01:01:50;;;;;;;11.60;8.05;;;18.20;99.90;;;;;;5117738;28;20173;-83
2021/06/20 01:04:16;;;;;;;9.65;7.15;;;;;;;;;;5116383;28;20249;-83
2021/06/20 01:06:42;;;;;;;10.05;7.65;;;18.00;99.90;;;;;;5115198;28;20174;-84
2021/06/20 01:09:08;;;;;;;9.40;7.75;;;;;;;;;;5115935;28;20177;-84
2021/06/20 01:11:34;;;;;;;13.93;7.88;;;;;;;;;;5117913;27;20614;-83
2021/06/20 01:14:02;;;;;;;12.00;8.23;;;18.50;99.90;;;;;;5116289;28;20218;-84
2021/06/20 01:16:29;;;;;;;14.70;9.32;;;17.80;99.90;;;;;;5116554;28;20173;-83
2021/06/20 01:18:56;;;;;;;17.52;10.05;;;18.40;99.90;;;;;;5116411;28;20174;-84
2021/06/20 01:21:22;;;;;;;16.98;10.68;;;18.40;99.90;;;;;;5118260;28;20255;-84
2021/06/20 01:23:47;;;;;;;14.73;10.63;;;18.00;99.90;;;;;;5116614;28;20203;-84
2021/06/20 01:26:14;;;;;;;14.75;10.23;;;18.00;99.90;;;;;;5116988;28;20170;-83
2021/06/20 01:28:51;;;;;;;19.60;9.95;;;;;;;;;;5120003;28;20166;-88
2021/06/20 01:31:19;;;;;;;15.90;10.13;;;18.00;99.90;;;;;;5118473;28;20168;-84
2021/06/20 01:33:45;;;;;;;20.20;10.85;;;17.90;99.90;;;;;;5116406;28;20185;-84
2021/06/20 01:36:12;;;;;;;25.00;12.07;;;17.90;99.90;;;;;;5117051;28;20507;-84
2021/06/20 01:38:39;;;;;;;17.50;10.10;;;18.10;99.90;;;;;;5116836;28;20182;-84
2021/06/20 01:41:07;;;;;;;16.42;10.50;;;17.80;99.90;;;;;;5117302;28;20190;-83
2021/06/20 01:43:33;;;;;;;19.13;11.07;;;17.80;99.90;;;;;;5117707;28;20165;-83
2021/06/20 01:45:59;;;;;;;16.17;10.18;;;;;;;;;;5115829;28;20507;-84
2021/06/20 01:48:25;;;;;;;18.67;10.77;;;17.60;99.90;;;;;;5117375;28;20299;-84
2021/06/20 01:50:51;;;;;;;19.90;10.80;;;;;;;;;;5099385;28;20260;-84
2021/06/20 01:53:17;;;;;;;19.15;10.88;;;17.60;99.90;;;;;;5099163;28;20182;-84
2021/06/20 01:55:45;;;;;;;16.48;9.82;;;17.70;99.90;;;;;;5115828;28;20178;-88
2021/06/20 01:58:13;;;;;;;16.70;9.85;;;17.70;99.90;;;;;;5117099;28;20166;-83
2021/06/20 02:00:41;;;;;;;16.45;11.00;;;17.80;99.90;;;;;;5116915;28;20202;-83
2021/06/20 02:03:09;;;;;;;17.55;10.27;;;17.90;99.90;;;;;;5116909;28;20181;-84
2021/06/20 02:05:36;;;;;;;18.13;10.93;;;17.60;99.90;;;;;;5115750;28;20181;-84
2021/06/20 02:08:03;;;;;;;14.45;11.00;;;17.80;99.90;;;;;;5116908;28;20170;-83
2021/06/20 02:10:29;;;;;;;16.67;10.52;;;17.50;99.90;;;;;;5116728;28;20165;-84
2021/06/20 02:12:55;;;;;;;19.80;11.00;;;17.90;99.90;;;;;;5116429;28;20226;-84
2021/06/20 02:15:22;;;;;;;19.80;10.52;;;;;;;;;;5116743;28;20674;-83
2021/06/20 02:17:48;;;;;;;22.92;9.88;;;18.10;99.90;;;;;;5115163;28;20185;-84
2021/06/20 02:20:18;;;;;;;20.88;10.15;;;17.60;99.90;;;;;;5115304;28;20193;-84
2021/06/20 02:22:45;;;;;;;21.13;10.75;;;17.60;99.90;;;;;;5116561;28;20170;-84
2021/06/20 02:25:13;;;;;;;16.67;11.38;;;17.50;99.90;;;;;;5116152;28;20170;-84
2021/06/20 02:27:39;;;;;;;21.13;12.02;;;17.60;99.90;;;;;;5116869;28;20177;-84
2021/06/20 02:30:06;;;;;;;18.88;11.23;;;17.60;99.90;;;;;;5115145;28;20170;-84
2021/06/20 02:32:32;;;;;;;19.88;11.20;;;17.30;99.90;;;;;;5115267;28;20186;-84
2021/06/20 02:34:58;;;;;;;16.63;10.88;;;;;;;;;;5098021;28;20182;-84
2021/06/20 02:37:24;;;;;;;17.20;10.63;;;;;;;;;;5116740;28;20199;-84
2021/06/20 02:39:51;;;;;;;20.13;12.27;;;17.60;99.90;;;;;;5114921;28;20193;-84
2021/06/20 02:42:17;;;;;;;17.95;10.35;;;;;;;;;;5114868;28;20634;-84
2021/06/20 02:44:44;;;;;;;17.83;10.73;;;17.50;99.90;;;;;;5115011;28;20176;-84
2021/06/20 02:47:11;;;;;;;19.48;10.52;;;17.40;99.90;;;;;;5115953;28;20265;-84
2021/06/20 02:49:38;;;;;;;16.98;10.10;;;17.60;99.90;;;;;;5116100;28;20252;-84
2021/06/20 02:52:06;;;;;;;17.48;11.00;;;17.60;99.90;;;;;;5114743;28;20201;-84
2021/06/20 02:54:32;;;;;;;14.52;9.65;;;17.70;99.90;;;;;;5115024;28;20184;-84
2021/06/20 02:57:00;;;;;;;14.30;9.20;;;17.70;99.90;;;;;;5114214;28;20178;-84
2021/06/20 02:59:26;;;;;;;17.65;11.00;;;17.80;99.90;;;;;;5115618;28;20645;-84
2021/06/20 03:01:52;;;;;;;19.15;10.88;;;17.50;99.90;;;;;;5115761;28;20195;-84
2021/06/20 03:04:19;;;;;;;15.57;9.70;;;17.40;99.90;;;;;;5114454;28;20527;-84
2021/06/20 03:06:45;;;;;;;20.75;10.18;;;18.00;99.90;;;;;;5115770;28;20173;-83
2021/06/20 03:09:11;;;;;;;15.95;10.65;;;17.80;99.90;;;;;;5114353;28;20162;-83
2021/06/20 03:11:44;;;;;;;19.10;11.20;;;17.70;99.90;;;;;;5114192;28;20178;-83
2021/06/20 03:14:13;;;;;;;15.63;10.70;;;18.10;99.90;;;;;;5115468;28;20221;-83
2021/06/20 03:16:39;;;;;;;17.50;10.38;;;17.80;99.90;;;;;;5115477;28;20623;-83
2021/06/20 03:19:05;;;;;;;17.58;11.50;;;;;;;;;;5113945;28;20252;-84
2021/06/20 03:21:31;;;;;;;19.80;11.85;;;18.00;99.90;;;;;;5114179;28;20212;-84
2021/06/20 03:23:56;;;;;;;15.85;11.50;;;17.60;99.90;;;;;;5113938;28;20518;-83
2021/06/20 03:26:22;;;;;;;21.52;13.50;;;;;;;;;;5113869;28;20519;-83
2021/06/20 03:28:48;;;;;;;18.42;12.07;;;17.70;99.90;;;;;;5114113;28;20177;-83
2021/06/20 03:31:17;;;;;;;19.58;13.07;;;;;;;;;;5114365;28;20170;-83
2021/06/20 03:33:44;;;;;;;15.70;11.68;;;17.70;99.90;;;;;;5115210;27;20625;-83
2021/06/20 03:36:10;;;;;;;20.23;13.57;;;18.20;99.90;;;;;;5113969;28;20645;-81
2021/06/20 03:38:36;;;;;;;20.55;13.23;;;;;;;;;;5113842;28;20178;-82
2021/06/20 03:41:02;;;;;;;19.92;12.73;;;18.10;99.90;;;;;;5115026;28;20210;-83
2021/06/20 03:43:27;;;;;;;21.23;12.98;;;18.40;99.90;;;;;;5114050;28;20196;-83
2021/06/20 03:45:53;;;;;;;17.88;13.07;;;;;;;;;;5114798;28;20496;-87
2021/06/20 03:48:19;;;;;;;20.88;13.55;;;18.40;99.90;;;;;;5096957;28;20649;-83
2021/06/20 03:50:45;;;;;;;20.13;12.30;;;;;;;;;;5117388;28;20253;-83
2021/06/20 03:53:11;;;;;;;21.00;12.25;;;18.10;99.90;;;;;;5117397;28;20252;-83
2021/06/20 03:55:38;;;;;;;19.05;12.35;;;18.40;99.90;;;;;;5113838;28;20177;-83
2021/06/20 03:58:06;;;;;;;21.60;12.38;;;18.30;99.90;;;;;;5113426;28;20178;-84
2021/06/20 04:00:33;;;;;;;25.38;12.90;;;18.60;99.90;;;;;;5115033;28;20197;-83
2021/06/20 04:02:59;;;;;;;18.15;12.05;;;18.60;99.90;;;;;;5113207;28;20174;-84
2021/06/20 04:05:25;;;;;;;18.10;11.48;;;;;;;;;;5114626;28;20231;-83
2021/06/20 04:07:50;;;;;;;20.38;10.15;;;18.80;99.90;;;;;;5121622;28;20166;-82
2021/06/20 04:10:16;;;;;;;18.30;10.70;;;19.10;99.90;;;;;;5133014;28;20182;-82
2021/06/20 04:12:42;;;;;;;16.55;10.00;;;19.50;99.90;;;;;;5130024;28;20256;-82
2021/06/20 04:15:08;;;;;;;15.98;9.95;;;19.40;99.90;;;;;;5118786;28;20159;-83
2021/06/20 04:17:34;;;;;;;19.10;8.98;;;19.20;99.90;;;;;;5113422;28;20226;-83
2021/06/20 04:20:03;;;;;;;12.18;9.18;;;19.20;99.90;;;;;;5112966;28;20202;-83
2021/06/20 04:22:28;;;;;;;13.68;9.00;;;19.30;99.90;;;;;;5113312;28;20181;-83
2021/06/20 04:24:55;;;;;;;15.35;8.60;;;19.60;99.90;;;;;;5112909;28;20307;-83
2021/06/20 04:27:20;;;;;;;11.13;8.13;;;19.80;99.90;;;;;;5113928;28;20197;-83
2021/06/20 04:29:46;;;;;;;13.75;8.98;;;;;;;;;;5113020;28;20230;-83
2021/06/20 04:32:12;;;;;;;10.70;7.97;;;20.20;99.90;;;;;;5112692;28;20178;-83
2021/06/20 04:34:38;;;;;;;12.90;7.15;;;20.40;99.90;;;;;;5113066;28;20256;-84
2021/06/20 04:37:04;;;;;;;14.82;8.05;;;;;;;;;;5112515;28;20521;-83
2021/06/20 04:39:30;;;;;;;13.95;8.20;;;20.40;99.90;;;;;;5112926;28;20165;-83
2021/06/20 04:41:56;;;;;;;11.43;6.90;;;;;;;;;;5114284;28;20169;-83
2021/06/20 04:47:06;;;;;;;10.80;6.82;;;21.20;99.90;;;;;;5113018;28;20230;-84
2021/06/20 04:49:32;;;;;;;10.82;7.13;;;21.40;99.90;;;;;;5113047;28;20179;-83
2021/06/20 04:51:58;;;;;;;15.38;7.07;;;;;;;;;;5112795;28;20585;-84
2021/06/20 04:54:24;;;;;;;8.15;6.68;;;22.00;99.90;;;;;;5113954;28;20173;-83
2021/06/20 04:56:49;;;;;;;8.48;7.07;;;21.60;99.90;;;;;;5112940;28;20174;-83
2021/06/20 04:59:15;;;;;;;11.38;6.35;;;22.00;99.90;;;;;;5112889;28;20169;-83
2021/06/20 05:01:41;;;;;;;12.95;6.25;;;22.20;99.90;;;;;;5113626;28;20530;-84
2021/06/20 05:04:07;;;;;;;9.80;6.18;;;22.10;99.90;;;;;;5113755;28;20243;-84
2021/06/20 05:06:33;;;;;;;7.72;5.93;;;22.00;99.90;;;;;;5113402;28;20184;-85
2021/06/20 05:08:59;;;;;;;7.47;5.65;;;22.30;99.90;;;;;;5102331;28;20235;-85
2021/06/20 05:11:25;;;;;;;9.43;5.07;;;;;;;;;;5112925;28;20182;-83
2021/06/20 05:13:51;;;;;;;7.72;5.13;;;;;;;;;;5113730;28;20252;-83
2021/06/20 05:16:17;;;;;;;12.55;4.75;;;22.50;99.90;;;;;;5114535;28;20239;-84
2021/06/20 05:18:43;;;;;;;5.80;4.90;;;;;;;;;;5112680;28;20531;-83
2021/06/20 05:21:09;;;;;;;7.85;5.22;;;22.50;99.90;;;;;;5112995;28;20236;-84
2021/06/20 05:23:35;;;;;;;9.77;4.70;;;;;;;;;;5112215;28;20201;-85
2021/06/20 05:26:01;;;;;;;8.95;4.72;;;22.40;99.90;;;;;;5111880;28;20185;-84
2021/06/20 05:28:27;;;;;;;11.70;4.85;;;22.80;99.90;;;;;;5111268;28;20525;-86
2021/06/20 05:30:53;;;;;;;6.68;4.70;;;22.60;99.90;;;;;;5112937;28;20238;-85
2021/06/20 05:33:19;;;;;;;10.35;4.72;;;23.20;99.90;;;;;;5111268;28;20618;-85
2021/06/20 05:35:46;;;;;;;6.78;4.72;;;22.80;99.90;;;;;;5111208;28;20178;-83
2021/06/20 05:38:16;;;;;;;12.02;5.43;;;23.10;99.90;;;;;;5112650;28;20273;-85
2021/06/20 05:40:41;;;;;;;6.85;5.05;;;22.90;99.90;;;;;;5112782;28;20197;-86
2021/06/20 05:43:08;;;;;;;5.55;4.68;;;;;;;;;;5113038;28;20254;-85
2021/06/20 05:45:34;;;;;;;7.75;5.30;;;23.10;99.90;;;;;;5111601;28;20178;-84
2021/06/20 05:48:00;;;;;;;6.05;5.05;;;23.90;99.90;;;;;;5112495;28;20201;-84
2021/06/20 05:50:26;;;;;;;9.30;4.90;;;;;;;;;;5094575;28;20217;-84
2021/06/20 05:52:56;;;;;;;6.32;4.80;;;23.40;99.90;;;;;;5112859;28;20198;-85
2021/06/20 05:55:22;;;;;;;8.68;4.88;;;23.50;99.90;;;;;;5114297;28;20227;-85
2021/06/20 05:57:48;;;;;;;7.60;5.35;;;;;;;;;;5116518;28;20316;-85
2021/06/20 06:00:14;;;;;;;5.13;4.43;;;23.70;99.90;;;;;;5116046;28;20549;-85
2021/06/20 06:02:40;;;;;;;5.07;3.97;;;24.00;99.90;;;;;;5116573;28;20648;-84
2021/06/20 06:05:08;;;;;;;5.10;4.18;;;23.90;99.90;;;;;;5116690;28;20170;-85
2021/06/20 06:07:34;;;;;;;7.43;4.00;;;23.90;99.90;;;;;;5114886;28;20611;-85
2021/06/20 06:10:00;;;;;;;9.73;4.40;;;;;;;;;;5116459;28;20226;-85
2021/06/20 06:12:26;;;;;;;8.90;5.15;;;24.10;99.90;;;;;;5116390;28;20205;-85
2021/06/20 06:14:53;;;;;;;5.95;4.50;;;24.50;99.90;;;;;;5128723;28;20164;-85
2021/06/20 06:17:22;;;;;;;5.40;3.75;;;24.20;99.90;;;;;;5134107;28;20178;-86
2021/06/20 06:19:52;;;;;;;7.30;4.60;;;24.60;99.90;;;;;;5137608;28;20217;-86
2021/06/20 06:22:20;;;;;;;10.07;4.82;;;24.70;99.90;;;;;;5132274;28;20219;-85
2021/06/20 06:24:46;;;;;;;6.53;4.78;;;24.70;99.90;;;;;;5116975;28;20169;-84
2021/06/20 06:27:13;;;;;;;11.13;6.57;;;24.60;99.90;;;;;;5115614;28;20177;-85
2021/06/20 06:29:39;;;;;;;7.00;4.10;;;24.90;99.90;;;;;;5115692;28;20702;-86
2021/06/20 06:32:06;;;;;;;8.18;4.25;;;25.20;99.90;;;;;;5114591;28;20174;-86
2021/06/20 06:34:33;;;;;;;11.98;4.10;;;24.90;99.90;;;;;;5114883;28;20169;-86
2021/06/20 06:36:59;;;;;;;8.50;4.75;;;24.70;99.90;;;;;;5114332;28;20196;-85
2021/06/20 06:39:26;;;;;;;12.73;4.70;;;25.50;99.90;;;;;;5114359;28;20301;-85
2021/06/20 06:41:52;;;;;;;10.25;4.20;;;25.60;99.90;;;;;;5113464;28;20209;-85
2021/06/20 06:44:18;;;;;;;10.27;4.22;;;24.90;99.90;;;;;;5112990;28;20873;-85
2021/06/20 06:46:44;;;;;;;5.93;4.25;;;25.20;99.90;;;;;;5113287;28;20257;-86
2021/06/20 06:49:10;;;;;;;7.43;4.05;;;25.20;99.90;;;;;;5114453;28;20174;-84
2021/06/20 06:51:35;;;;;;;7.10;4.32;;;26.00;99.90;;;;;;5114101;28;20315;-85
2021/06/20 06:54:02;;;;;;;8.02;5.05;;;25.20;99.90;;;;;;5114894;28;20264;-85
2021/06/20 06:56:27;;;;;;;8.73;4.13;;;25.60;99.90;;;;;;5115452;28;20166;-85
2021/06/20 06:58:54;;;;;;;5.32;4.20;;;25.60;99.90;;;;;;5115771;28;20178;-86
2021/06/20 07:01:20;;;;;;;7.07;4.13;;;;;;;;;;5114268;28;20217;-85
2021/06/20 07:03:46;;;;;;;7.15;3.75;;;;;;;;;;5115710;28;20171;-85
2021/06/20 07:06:11;;;;;;;10.50;4.00;;;25.80;99.90;;;;;;5113477;28;20693;-84
2021/06/20 07:08:37;;;;;;;6.47;3.42;;;25.80;99.90;;;;;;5114860;28;20265;-84
2021/06/20 07:11:04;;;;;;;5.72;4.15;;;25.60;99.90;;;;;;5115776;28;20220;-84
2021/06/20 07:13:30;;;;;;;6.18;4.15;;;25.00;99.90;;;;;;5114767;28;20249;-84
2021/06/20 07:15:56;;;;;;;11.00;4.25;;;;;;;;;;5115183;28;20181;-84
2021/06/20 07:18:22;;;;;;;6.63;3.75;;;25.80;99.90;;;;;;5114163;28;20281;-85
2021/06/20 07:20:48;;;;;;;5.07;3.63;;;25.30;99.90;;;;;;5115013;28;20298;-84
2021/06/20 07:23:14;;;;;;;6.32;4.07;;;25.50;99.90;;;;;;5115449;28;20201;-85
2021/06/20 07:25:40;;;;;;;7.78;3.90;;;25.20;99.90;;;;;;5113911;28;20584;-85
2021/06/20 07:28:06;;;;;;;5.20;4.30;;;25.60;99.90;;;;;;5114686;28;20193;-84
2021/06/20 07:30:32;;;;;;;10.13;3.75;;;25.80;99.90;;;;;;5113745;28;20627;-84
2021/06/20 07:32:58;;;;;;;7.80;4.35;;;25.80;99.90;;;;;;5115158;28;20626;-83
2021/06/20 07:35:24;;;;;;;4.95;3.63;;;26.10;99.90;;;;;;5113800;28;20234;-83
2021/06/20 07:37:50;;;;;;;6.53;4.03;;;26.00;99.90;;;;;;5113960;28;20268;-84
2021/06/20 07:40:18;;;;;;;5.53;3.80;;;26.40;99.90;;;;;;5114938;28;20347;-83
2021/06/20 07:42:45;;;;;;;10.55;4.80;;;26.40;99.90;;;;;;5114994;28;20162;-81
2021/06/20 07:45:11;;;;;;;8.38;4.40;;;26.60;99.90;;;;;;5113828;28;20185;-83
2021/06/20 07:47:38;;;;;;;7.72;3.95;;;26.80;99.90;;;;;;5114491;28;20283;-81
2021/06/20 07:50:06;;;;;;;6.35;4.47;;;26.80;99.90;;;;;;5115512;28;20219;-83
2021/06/20 07:52:32;;;;;;;6.15;3.88;;;26.90;99.90;;;;;;5096942;28;20538;-83
2021/06/20 07:54:57;;;;;;;5.18;4.18;;;26.50;99.90;;;;;;5113996;28;20543;-83
2021/06/20 07:57:23;;;;;;;4.00;3.60;;;;;;;;;;5113647;28;20664;-84
2021/06/20 07:59:49;;;;;;;6.45;4.30;;;27.10;99.90;;;;;;5114895;28;20199;-84
2021/06/20 08:02:16;;;;;;;9.90;4.78;;;27.20;99.90;;;;;;5113761;28;20487;-84
2021/06/20 08:04:42;;;;;;;10.90;4.50;;;27.20;99.90;;;;;;5114537;28;20182;-83
2021/06/20 08:07:08;;;;;;;4.68;4.28;;;;;;;;;;5113790;28;20581;-84
2021/06/20 08:09:36;;;;;;;8.70;4.75;;;27.30;99.90;;;;;;5114507;28;20257;-83
2021/06/20 08:12:02;;;;;;;7.70;4.25;;;27.30;99.90;;;;;;5115010;28;20694;-80
2021/06/20 08:14:28;;;;;;;6.95;4.82;;;;;;;;;;5114809;28;20225;-84
2021/06/20 08:16:54;;;;;;;9.70;4.93;;;27.60;99.90;;;;;;5114612;28;20176;-83
2021/06/20 08:19:20;;;;;;;10.95;6.15;;;27.60;99.90;;;;;;5113666;28;20174;-83
2021/06/20 08:21:47;;;;;;;6.50;5.05;;;27.70;99.90;;;;;;5113824;28;20733;-84
2021/06/20 08:24:13;;;;;;;6.00;4.65;;;;;;;;;;5115114;28;20192;-83
2021/06/20 08:26:41;;;;;;;7.20;4.40;;;27.70;99.90;;;;;;5114381;28;20182;-85
2021/06/20 08:29:07;;;;;;;8.23;4.70;;;27.90;99.90;;;;;;5113407;28;20186;-84
2021/06/20 08:31:33;;;;;;;6.75;4.95;;;27.90;99.90;;;;;;5114867;28;20178;-83
2021/06/20 08:33:59;;;;;;;7.88;4.72;;;28.00;99.90;;;;;;5115110;28;20685;-83
2021/06/20 08:36:25;;;;;;;6.07;5.07;;;28.10;99.90;;;;;;5112850;28;20257;-85
2021/06/20 08:38:51;;;;;;;6.75;4.20;;;;;;;;;;5114935;28;20261;-85
2021/06/20 08:41:17;;;;;;;10.00;5.32;;;28.20;99.90;;;;;;5114594;28;20237;-82
2021/06/20 08:43:44;;;;;;;5.28;4.32;;;28.20;99.90;;;;;;5114240;28;21156;-84
2021/06/20 08:46:10;;;;;;;6.28;4.63;;;;;;;;;;5114999;28;20257;-83
2021/06/20 08:48:37;;;;;;;9.20;4.18;;;28.30;99.90;;;;;;5112775;28;20182;-82
2021/06/20 08:51:04;;;;;;;5.18;3.92;;;28.30;99.90;;;;;;5115039;28;20227;-83
2021/06/20 08:53:29;;;;;;;5.70;4.03;;;28.30;99.90;;;;;;5096269;28;20269;-83
2021/06/20 08:55:56;;;;;;;5.10;3.97;;;28.30;99.90;;;;;;5114304;28;20257;-84
2021/06/20 08:58:26;;;;;;;12.73;4.70;;;28.40;99.90;;;;;;5114366;28;20195;-82
2021/06/20 09:00:52;;;;;;;4.93;3.90;;;28.40;99.90;;;;;;5114342;28;20197;-82
2021/06/20 09:03:18;;;;;;;8.30;4.53;;;28.40;99.90;;;;;;5113727;28;20185;-84
2021/06/20 09:06:17;;;;;;;4.55;4.15;;;28.20;99.90;;;;;;5113686;28;20174;-82
2021/06/20 09:09:04;;;;;;;9.52;4.88;;;28.20;99.90;;;;;;5111464;28;20182;-82
2021/06/20 09:11:37;;;;;;;8.15;4.25;;;28.40;99.90;;;;;;5113675;28;20177;-83
2021/06/20 09:14:14;;;;;;;5.15;3.85;;;28.50;99.90;;;;;;5113180;28;20576;-84
2021/06/20 09:16:48;;;;;;;9.85;4.43;;;28.60;99.90;;;;;;5114345;28;20165;-83
2021/06/20 09:19:14;;;;;;;8.10;4.03;;;28.80;99.90;;;;;;5113579;28;20181;-82
2021/06/20 09:21:51;;;;;;;4.45;3.78;;;28.90;99.90;;;;;;5113629;28;20263;-83
2021/06/20 09:24:18;;;;;;;6.95;3.97;;;29.10;99.90;;;;;;5115486;28;20176;-84
2021/06/20 09:26:44;;;;;;;8.38;3.95;;;29.00;99.90;;;;;;5114498;28;20192;-84
2021/06/20 09:29:10;;;;;;;4.68;4.00;;;28.90;99.90;;;;;;5096653;28;20697;-85
2021/06/20 09:31:53;;;;;;;5.65;3.80;;;28.90;99.90;;;;;;5117939;28;20180;-85
2021/06/20 09:34:19;;;;;;;8.00;3.75;;;28.90;99.90;;;;;;5119506;28;20169;-84
2021/06/20 09:36:46;;;;;;;8.77;4.07;;;29.10;99.90;;;;;;5117593;28;20261;-84
2021/06/20 09:39:23;;;;;;;12.57;4.38;;;29.20;99.90;;;;;;5118928;28;20264;-85
2021/06/20 09:42:16;;;;;;;5.93;4.40;;;29.20;99.90;;;;;;5116751;28;20719;-85
2021/06/20 09:44:48;;;;;;;5.63;4.22;;;29.40;99.90;;;;;;5113450;28;20246;-85
2021/06/20 09:47:19;;;;;;;6.18;4.57;;;29.60;99.90;;;;;;5118880;28;20162;-83
2021/06/20 09:49:47;;;;;;;8.98;4.00;;;29.70;99.90;;;;;;5118904;28;20182;-84
2021/06/20 09:52:15;;;;;;;6.80;4.30;;;;;;;;;;5119113;28;20615;-84
2021/06/20 09:54:52;;;;;;;5.53;4.20;;;29.60;99.90;;;;;;5101337;28;20185;-84
2021/06/20 09:57:18;;;;;;;7.28;3.85;;;29.60;99.90;;;;;;5119075;28;20154;-84
2021/06/20 09:59:58;;;;;;;9.88;4.07;;;29.70;99.90;;;;;;5100165;28;20212;-84
2021/06/20 10:02:28;;;;;;;10.77;3.60;;;29.80;99.90;;;;;;5117652;28;20178;-84
2021/06/20 10:04:55;;;;;;;6.95;3.38;;;29.80;99.90;;;;;;5119203;28;20174;-84
2021/06/20 10:07:25;;;;;;;8.13;3.97;;;29.80;99.90;;;;;;5118512;28;20169;-84
2021/06/20 10:09:51;;;;;;;4.20;3.60;;;30.00;99.90;;;;;;5115669;28;20296;-84
2021/06/20 10:12:17;;;;;;;13.55;3.53;;;30.00;99.90;;;;;;5115640;28;20276;-83
2021/06/20 10:14:45;;;;;;;4.40;3.63;;;29.80;99.90;;;;;;5117253;28;20240;-84
2021/06/20 10:17:16;;;;;;;7.20;3.83;;;29.90;99.90;;;;;;5116040;28;20186;-85
2021/06/20 10:19:50;;;;;;;6.07;3.50;;;30.00;99.70;;;;;;5115205;28;20178;-85
2021/06/20 10:22:17;;;;;;;3.78;3.42;;;30.00;98.60;;;;;;5117454;28;20162;-85
2021/06/20 10:25:03;;;;;;;7.03;3.17;;;30.10;99.00;;;;;;5115396;28;20170;-85
2021/06/20 10:27:38;;;;;;;4.68;3.17;;;30.10;98.70;;;;;;5116166;28;20276;-84
2021/06/20 10:30:16;;;;;;;8.40;3.30;;;30.10;99.30;;;;;;5118020;28;20227;-84
2021/06/20 10:32:47;;;;;;;5.03;3.40;;;30.10;98.10;;;;;;5116981;28;20273;-85
2021/06/20 10:35:18;;;;;;;5.82;3.30;;;30.00;99.90;;;;;;5117094;28;20174;-85
2021/06/20 10:37:44;;;;;;;8.35;3.38;;;30.00;98.70;;;;;;5116732;28;20174;-82
2021/06/20 10:40:21;;;;;;;5.28;3.28;;;30.10;99.70;;;;;;5115628;28;20235;-85
2021/06/20 10:42:48;;;;;;;7.45;3.40;;;30.10;97.70;;;;;;5115467;28;20645;-84
2021/06/20 10:45:25;;;;;;;5.82;3.08;;;30.20;97.90;;;;;;5116720;28;20630;-84
2021/06/20 10:47:51;;;;;;;6.00;3.45;;;30.30;99.00;;;;;;5114498;28;20181;-84
2021/06/20 10:50:16;;;;;;;10.85;3.70;;;30.40;97.80;;;;;;5116032;28;20220;-84
2021/06/20 10:52:58;;;;;;;4.75;3.45;;;30.50;97.40;;;;;;5115844;28;20174;-84
2021/06/20 10:55:24;;;;;;;7.32;3.80;;;30.70;98.40;;;;;;5117404;28;20172;-84
2021/06/20 10:57:55;;;;;;;6.15;3.33;;;30.80;96.60;;;;;;5116024;28;20184;-85
2021/06/20 11:00:35;;;;;;;9.55;3.75;;;30.90;98.20;;;;;;5115960;28;20216;-83
2021/06/20 11:03:23;;;;;;;9.45;3.13;;;31.00;94.30;;;;;;5116126;28;20181;-84
2021/06/20 11:06:16;;;;;;;4.72;3.03;;;31.00;94.50;;;;;;5115981;28;20169;-83
2021/06/20 11:09:01;;;;;;;9.95;3.25;;;30.90;94.90;;;;;;5112282;28;20194;-85
2021/06/20 11:11:27;;;;;;;3.42;3.13;;;;;;;;;;5119290;28;20162;-84
2021/06/20 11:13:55;;;;;;;4.22;3.22;;;30.90;94.60;;;;;;5114985;28;20226;-84
2021/06/20 11:16:39;;;;;;;6.30;2.83;;;30.90;94.90;;;;;;5117559;28;20182;-84
2021/06/20 11:19:26;;;;;;;8.32;3.03;;;31.00;95.50;;;;;;5117175;28;20162;-82
2021/06/20 11:21:56;;;;;;;5.20;3.05;;;31.00;94.60;;;;;;5115996;28;20650;-85
2021/06/20 11:24:28;;;;;;;6.78;2.85;;;31.10;93.90;;;;;;5114902;28;20178;-85
2021/06/20 11:27:03;;;;;;;3.70;2.85;;;31.10;93.90;;;;;;5115648;28;20635;-85
2021/06/20 11:29:38;;;;;;;4.82;3.20;;;30.90;92.80;;;;;;5113821;28;20223;-84
2021/06/20 11:32:05;;;;;;;5.47;3.30;;;;;;;;;;5115146;28;20211;-83
2021/06/20 11:34:30;;;;;;;6.53;2.90;;;31.30;93.50;;;;;;5115372;28;20174;-83
2021/06/20 11:36:56;;;;;;;5.72;3.40;;;31.00;92.60;;;;;;5113650;28;20178;-84
2021/06/20 11:39:22;;;;;;;9.65;3.55;;;30.80;93.60;;;;;;5115406;28;20185;-83
2021/06/20 11:41:50;;;;;;;7.82;3.15;;;31.00;94.10;;;;;;5113529;28;20670;-83
2021/06/20 11:44:18;;;;;;;7.60;3.30;;;31.00;93.50;;;;;;5115072;28;20177;-83
2021/06/20 11:46:46;;;;;;;8.25;3.20;;;31.00;93.70;;;;;;5113480;28;20170;-83
2021/06/20 11:49:13;;;;;;;10.43;3.40;;;31.00;93.50;;;;;;5114836;28;20178;-82
2021/06/20 11:51:45;;;;;;;7.88;3.95;;;31.10;93.20;;;;;;5114425;28;20177;-83
2021/06/20 11:54:24;;;;;;;8.48;3.47;;;31.10;92.40;;;;;;5114260;28;20180;-83
2021/06/20 11:56:55;;;;;;;3.90;3.20;;;30.90;93.70;;;;;;5114473;28;20154;-83
2021/06/20 11:59:40;;;;;;;9.48;4.53;;;30.90;95.20;;;;;;5114780;28;20162;-83
2021/06/20 12:02:06;;;;;;;6.88;3.90;;;31.00;93.70;;;;;;5112912;28;20575;-83
2021/06/20 12:04:33;;;;;;;8.18;4.05;;;30.80;94.30;;;;;;5114405;28;20182;-83
2021/06/20 12:07:06;;;;;;;10.50;4.38;;;30.70;94.70;;;;;;5113074;28;20182;-84
2021/06/20 12:09:32;;;;;;;8.82;4.28;;;30.80;94.20;;;;;;5114414;28;20184;-83
2021/06/20 12:12:09;;;;;;;7.00;3.85;;;30.90;94.80;;;;;;5114142;28;20230;-84
2021/06/20 12:14:34;;;;;;;7.35;4.07;;;30.90;94.10;;;;;;5114544;28;20213;-84
2021/06/20 12:17:02;;;;;;;9.48;3.80;;;31.00;94.30;;;;;;5113978;28;20185;-84
2021/06/20 12:19:36;;;;;;;6.43;4.28;;;31.10;93.40;;;;;;5114197;28;20252;-84
2021/06/20 12:22:12;;;;;;;7.78;3.83;;;31.20;93.60;;;;;;5113889;28;20236;-84
2021/06/20 12:24:42;;;;;;;9.93;4.38;;;31.20;93.50;;;;;;5114505;28;20253;-84
2021/06/20 12:27:09;;;;;;;5.90;4.25;;;31.30;94.00;;;;;;5113843;28;20192;-85
2021/06/20 12:29:36;;;;;;;5.35;3.95;;;31.30;94.30;;;;;;5114268;28;20185;-82
2021/06/20 12:32:06;;;;;;;9.70;3.40;;;31.30;94.00;;;;;;5112908;28;20186;-84
2021/06/20 12:34:42;;;;;;;9.70;3.38;;;31.10;93.80;;;;;;5114267;28;20602;-84
2021/06/20 12:37:08;;;;;;;7.53;3.42;;;31.10;93.50;;;;;;5113896;28;20172;-85
2021/06/20 12:39:51;;;;;;;8.30;3.42;;;31.00;92.60;;;;;;5096028;28;20181;-82
2021/06/20 12:42:17;;;;;;;7.90;3.50;;;30.80;93.50;;;;;;5114433;28;20282;-82
2021/06/20 12:44:46;;;;;;;4.82;3.65;;;30.70;93.20;;;;;;5112610;28;20186;-83
2021/06/20 12:47:13;;;;;;;6.90;3.50;;;30.60;93.10;;;;;;5113709;28;20223;-83
2021/06/20 12:49:40;;;;;;;4.25;3.38;;;30.60;93.30;;;;;;5112777;28;20223;-84
2021/06/20 12:52:06;;;;;;;4.78;3.22;;;30.50;94.10;;;;;;5112267;28;20169;-83
2021/06/20 12:54:53;;;;;;;15.60;3.30;;;31.10;94.60;;;;;;5114377;28;20223;-83
2021/06/20 12:57:23;;;;;;;5.03;2.83;;;30.50;93.70;;;;;;5114334;28;20162;-82
2021/06/20 12:59:50;;;;;;;3.25;2.95;;;30.60;94.40;;;;;;5113711;28;20177;-87
2021/06/20 13:02:25;;;;;;;7.50;3.15;;;30.60;93.60;;;;;;5114095;28;20197;-83